Time;durP1;ratioP1;P1;durP2;ratioP2;P2;SDS_P1;SDS_P2;PMS_P1;PMS_P2;Temp;Humidity;BMP_temperature;BMP_pressure;BME280_temperature;BME280_humidity;BME280_pressure;Samples;Min_cycle;Max_cycle;Signal;HPM_P1;HPM_P2
2023/10/12 00:00:24;;;;;;;10.98;5.43;;;384.90;2329.60;;;;;;5052108;28;20079;-75
2023/10/12 00:02:43;;;;;;;10.30;5.07;;;384.90;2329.60;;;;;;5053374;28;20478;-75
2023/10/12 00:05:17;;;;;;;9.63;4.70;;;384.80;2329.60;;;;;;5052108;28;20036;-76
2023/10/12 00:07:45;;;;;;;9.85;5.13;;;384.80;2329.60;;;;;;5053619;28;20017;-76
2023/10/12 00:12:45;;;;;;;13.00;5.28;;;384.70;2329.60;;;;;;5053250;28;20053;-76
2023/10/12 00:17:55;;;;;;;16.88;6.15;;;384.70;2329.60;;;;;;5053513;28;20051;-75
2023/10/12 00:23:09;;;;;;;11.80;5.68;;;384.70;2329.60;;;;;;5053249;28;20025;-76
2023/10/12 00:25:47;;;;;;;13.50;5.68;;;384.70;2329.60;;;;;;5052969;28;20024;-75
2023/10/12 00:28:20;;;;;;;14.27;5.30;;;384.70;2329.60;;;;;;5039979;28;20387;-76
2023/10/12 00:30:47;;;;;;;14.32;5.57;;;384.70;2329.60;;;;;;5052854;28;20025;-76
2023/10/12 00:33:13;;;;;;;12.15;5.38;;;384.70;2329.60;;;;;;5052942;28;20021;-76
2023/10/12 00:35:39;;;;;;;14.15;5.18;;;384.60;2329.60;;;;;;5052776;28;20025;-75
2023/10/12 00:38:18;;;;;;;12.77;6.22;;;384.50;2329.60;;;;;;5052936;28;20070;-76
2023/10/12 00:40:58;;;;;;;19.02;5.07;;;384.50;2329.60;;;;;;5052717;28;20021;-76
2023/10/12 00:43:39;;;;;;;11.40;5.20;;;384.50;2329.60;;;;;;5051512;28;20044;-76
2023/10/12 00:51:37;;;;;;;13.80;4.85;;;384.50;2329.60;;;;;;5052948;28;20087;-76
2023/10/12 00:54:04;;;;;;;14.32;5.55;;;384.50;2329.60;;;;;;5052448;28;20033;-76
2023/10/12 00:56:30;;;;;;;11.43;5.22;;;384.50;2329.60;;;;;;5051510;28;20497;-76
2023/10/12 00:58:57;;;;;;;12.65;5.97;;;384.50;2329.60;;;;;;5051816;28;20467;-76
2023/10/12 01:01:25;;;;;;;12.70;5.97;;;384.50;2329.60;;;;;;5053002;28;20409;-75
2023/10/12 01:03:52;;;;;;;12.75;5.07;;;384.50;2329.60;;;;;;5052720;28;20079;-76
2023/10/12 01:06:27;;;;;;;16.30;5.47;;;384.50;2329.60;;;;;;5053751;28;20021;-76
2023/10/12 01:08:57;;;;;;;13.77;5.85;;;384.50;2329.60;;;;;;5055467;28;20059;-76
2023/10/12 01:11:26;;;;;;;14.27;5.95;;;384.50;2329.60;;;;;;5056660;28;20060;-76
2023/10/12 01:16:43;;;;;;;24.67;6.17;;;384.50;2329.60;;;;;;5056781;28;20097;-75
2023/10/12 01:19:09;;;;;;;9.65;5.00;;;384.40;2329.60;;;;;;5056744;28;20272;-76
2023/10/12 01:21:36;;;;;;;17.25;5.68;;;384.40;2329.60;;;;;;5056185;28;20115;-75
2023/10/12 01:24:12;;;;;;;11.07;5.35;;;384.30;2329.60;;;;;;5056480;28;20497;-76
2023/10/12 01:26:44;;;;;;;12.40;5.07;;;384.30;2329.60;;;;;;5056504;28;20017;-76
2023/10/12 01:29:19;;;;;;;17.13;5.38;;;384.30;2329.60;;;;;;5056364;28;20040;-76
2023/10/12 01:31:51;;;;;;;12.57;5.05;;;384.30;2329.60;;;;;;5056430;28;20025;-76
2023/10/12 01:34:18;;;;;;;10.02;4.25;;;384.30;2329.60;;;;;;5054740;28;20091;-76
2023/10/12 01:36:43;;;;;;;16.80;4.68;;;384.40;2329.60;;;;;;5056425;28;20021;-75
2023/10/12 01:39:14;;;;;;;10.85;5.32;;;384.30;2329.60;;;;;;5054715;28;20025;-75
2023/10/12 01:41:43;;;;;;;9.32;4.97;;;384.30;2329.60;;;;;;5056194;28;20104;-76
2023/10/12 01:44:12;;;;;;;11.93;5.10;;;384.30;2329.60;;;;;;5055795;28;20110;-75
2023/10/12 01:46:41;;;;;;;9.15;4.65;;;384.30;2329.60;;;;;;5056339;28;20095;-76
2023/10/12 01:49:14;;;;;;;13.00;5.55;;;384.30;2329.60;;;;;;5056145;28;20025;-76
2023/10/12 01:51:45;;;;;;;13.25;6.10;;;384.30;2329.60;;;;;;5055995;28;20458;-75
2023/10/12 01:54:24;;;;;;;12.00;4.95;;;384.40;2329.60;;;;;;5054631;28;20041;-75
2023/10/12 01:56:55;;;;;;;12.88;5.22;;;384.40;2329.60;;;;;;5054319;28;20067;-76
2023/10/12 01:59:21;;;;;;;15.07;6.22;;;384.30;2329.60;;;;;;5054792;28;20090;-76
2023/10/12 02:02:01;;;;;;;16.13;5.53;;;384.30;2329.60;;;;;;5055770;28;20115;-75
2023/10/12 02:04:26;;;;;;;12.25;5.70;;;384.30;2329.60;;;;;;5054493;28;20493;-76
2023/10/12 02:06:52;;;;;;;20.42;6.57;;;384.40;2329.60;;;;;;5055591;28;20013;-76
2023/10/12 02:09:22;;;;;;;14.93;5.72;;;384.40;2329.60;;;;;;5054593;28;20368;-76
2023/10/12 02:11:54;;;;;;;13.02;6.10;;;384.30;2329.60;;;;;;5055365;28;20044;-76
2023/10/12 02:14:32;;;;;;;15.15;6.50;;;384.30;2329.60;;;;;;5054395;28;20092;-76
2023/10/12 02:17:02;;;;;;;12.98;5.55;;;384.20;2329.60;;;;;;5055590;28;20480;-76
2023/10/12 02:19:31;;;;;;;19.05;5.90;;;384.20;2329.60;;;;;;5053745;28;20029;-76
2023/10/12 02:22:01;;;;;;;23.52;5.53;;;384.20;2329.60;;;;;;5058395;28;20022;-76
2023/10/12 02:24:27;;;;;;;16.77;5.47;;;384.20;2329.60;;;;;;5061015;28;20040;-76
2023/10/12 02:26:52;;;;;;;17.40;5.32;;;384.10;2329.60;;;;;;5060690;28;20462;-76
2023/10/12 02:29:19;;;;;;;11.68;5.25;;;384.10;2329.60;;;;;;5055423;28;20029;-76
2023/10/12 02:34:20;;;;;;;10.52;4.93;;;384.20;2329.60;;;;;;5055203;28;20033;-75
2023/10/12 02:37:00;;;;;;;13.98;5.60;;;384.20;2329.60;;;;;;5055319;28;20025;-75
2023/10/12 02:39:31;;;;;;;9.20;4.45;;;384.20;2329.60;;;;;;5055054;28;20029;-75
2023/10/12 02:42:18;;;;;;;8.93;4.13;;;384.10;2329.60;;;;;;5054871;28;20036;-75
2023/10/12 02:47:22;;;;;;;13.20;5.97;;;384.10;2329.60;;;;;;5054799;28;20082;-75
2023/10/12 02:49:49;;;;;;;16.10;5.20;;;384.10;2329.60;;;;;;5053624;28;20029;-75
2023/10/12 02:52:16;;;;;;;9.80;4.45;;;384.00;2329.60;;;;;;5054701;28;20013;-75
2023/10/12 02:54:55;;;;;;;11.23;5.03;;;384.00;2329.60;;;;;;5053800;28;20048;-75
2023/10/12 02:57:25;;;;;;;10.10;4.50;;;384.00;2329.60;;;;;;5054632;28;20371;-75
2023/10/12 03:02:53;;;;;;;11.43;5.00;;;384.00;2329.60;;;;;;5051971;28;20048;-75
2023/10/12 03:05:30;;;;;;;13.32;5.30;;;384.10;2329.60;;;;;;5030393;28;20510;-75
2023/10/12 03:07:58;;;;;;;10.10;4.47;;;384.00;2329.60;;;;;;5045590;28;20079;-75
2023/10/12 03:10:29;;;;;;;9.63;5.03;;;359.30;2329.60;;;;;;5039375;28;20040;-75
2023/10/12 03:12:55;;;;;;;13.85;5.43;;;359.30;2329.60;;;;;;5033611;28;20157;-76
2023/10/12 03:15:45;;;;;;;16.42;5.03;;;384.00;2329.60;;;;;;5040102;28;20080;-75
2023/10/12 03:18:11;;;;;;;7.18;4.38;;;384.00;2329.60;;;;;;5052238;28;20017;-75
2023/10/12 03:20:38;;;;;;;13.50;4.50;;;384.00;2329.60;;;;;;5052081;28;20387;-76
2023/10/12 03:23:16;;;;;;;11.20;4.13;;;384.00;2329.60;;;;;;5038558;28;20032;-75
2023/10/12 03:25:51;;;;;;;12.85;4.63;;;359.30;2329.60;;;;;;5052158;28;20033;-75
2023/10/12 03:28:30;;;;;;;11.70;5.00;;;359.30;2329.60;;;;;;5051855;28;20056;-75
2023/10/12 03:33:54;;;;;;;11.93;5.43;;;359.20;2329.60;;;;;;5039967;28;20036;-76
2023/10/12 03:36:32;;;;;;;11.23;4.72;;;359.20;2329.60;;;;;;5027159;28;20029;-74
2023/10/12 03:44:18;;;;;;;9.45;4.60;;;358.90;2329.60;;;;;;5053661;28;20163;-75
2023/10/12 03:46:46;;;;;;;14.88;4.95;;;358.80;2329.60;;;;;;5053858;28;20021;-75
2023/10/12 03:51:59;;;;;;;11.52;4.53;;;358.80;2329.60;;;;;;5053410;28;20386;-75
2023/10/12 03:54:34;;;;;;;10.65;4.55;;;358.70;2329.60;;;;;;5053588;28;20048;-75
2023/10/12 03:59:44;;;;;;;11.27;4.32;;;358.70;2329.60;;;;;;5053581;28;20528;-75
2023/10/12 04:02:15;;;;;;;11.60;4.32;;;358.60;2329.60;;;;;;5053511;28;20092;-75
2023/10/12 04:05:15;;;;;;;9.07;4.38;;;358.50;2329.60;;;;;;5053572;28;20071;-75
2023/10/12 04:13:08;;;;;;;12.77;4.68;;;358.50;2329.60;;;;;;5052918;28;20044;-75
2023/10/12 04:16:05;;;;;;;12.00;3.78;;;358.60;2329.60;;;;;;5052241;28;20128;-75
2023/10/12 04:18:32;;;;;;;12.43;3.90;;;358.60;2329.60;;;;;;5053186;28;20017;-75
2023/10/12 04:20:58;;;;;;;12.02;3.97;;;358.50;2329.60;;;;;;5053082;28;20025;-75
2023/10/12 04:26:27;;;;;;;11.63;4.68;;;358.60;2329.60;;;;;;5052965;28;20027;-76
2023/10/12 04:28:55;;;;;;;11.90;4.00;;;358.60;2329.60;;;;;;5053400;28;20021;-76
2023/10/12 04:31:27;;;;;;;12.77;4.50;;;358.70;2329.60;;;;;;5051727;28;20024;-75
2023/10/12 04:34:08;;;;;;;7.65;3.97;;;358.80;2329.60;;;;;;5052741;28;20025;-75
2023/10/12 04:36:45;;;;;;;7.85;4.32;;;358.80;2329.60;;;;;;5053083;28;20025;-76
2023/10/12 04:39:16;;;;;;;9.43;4.25;;;358.80;2329.60;;;;;;5052696;28;20067;-75
2023/10/12 04:47:10;;;;;;;12.38;3.80;;;358.80;2329.60;;;;;;5044371;28;20036;-75
2023/10/12 04:57:26;;;;;;;15.13;5.13;;;358.90;2329.60;;;;;;5055576;28;20483;-75
2023/10/12 05:07:57;;;;;;;8.02;3.50;;;359.00;2329.60;;;;;;5057638;28;20032;-75
2023/10/12 05:10:27;;;;;;;;;;;358.70;2329.60;;;;;;5052983;28;20029;-75
2023/10/12 05:13:03;;;;;;;10.45;3.80;;;359.00;2329.60;;;;;;5050688;28;19908;-75
2023/10/12 05:15:39;;;;;;;12.20;4.65;;;359.00;2329.60;;;;;;5048894;28;20483;-75
2023/10/12 05:18:06;;;;;;;9.65;4.07;;;359.00;2329.60;;;;;;5055107;28;20083;-75
2023/10/12 05:20:32;;;;;;;9.95;3.78;;;359.00;2329.60;;;;;;5045810;28;20029;-75
2023/10/12 05:22:58;;;;;;;6.65;3.60;;;359.00;2329.60;;;;;;5056182;28;20108;-75
2023/10/12 05:25:32;;;;;;;6.10;3.40;;;359.00;2329.60;;;;;;5040091;28;20021;-75
2023/10/12 05:28:13;;;;;;;9.57;3.78;;;359.00;2329.60;;;;;;5044860;28;20030;-75
2023/10/12 05:30:39;;;;;;;10.35;3.80;;;359.00;2329.60;;;;;;5047643;28;20117;-75
2023/10/12 05:33:06;;;;;;;9.48;3.70;;;359.00;2329.60;;;;;;5050395;28;20444;-75
2023/10/12 05:35:49;;;;;;;8.52;3.60;;;359.10;2329.60;;;;;;5051456;28;20032;-75
2023/10/12 05:38:17;;;;;;;9.43;3.88;;;359.10;2329.60;;;;;;5056207;28;20124;-75
2023/10/12 05:40:53;;;;;;;9.82;3.85;;;359.20;2329.60;;;;;;5054081;28;20020;-75
2023/10/12 05:43:22;;;;;;;13.05;4.15;;;359.20;2329.60;;;;;;5044172;28;20422;-75
2023/10/12 05:45:48;;;;;;;7.50;3.42;;;359.00;2329.60;;;;;;5047268;28;20054;-75
2023/10/12 05:48:16;;;;;;;10.00;3.70;;;384.00;2329.60;;;;;;5042745;28;20029;-76
2023/10/12 05:50:42;;;;;;;8.30;4.60;;;384.00;2329.60;;;;;;5046050;28;20104;-76
2023/10/12 05:53:08;;;;;;;12.20;3.90;;;384.10;2329.60;;;;;;5051610;28;20029;-75
2023/10/12 05:55:34;;;;;;;7.63;4.07;;;384.20;2329.60;;;;;;5062014;28;20043;-75
2023/10/12 05:58:21;;;;;;;8.82;4.25;;;384.30;2329.60;;;;;;5056865;28;20025;-74
2023/10/12 06:00:47;;;;;;;7.70;4.65;;;384.40;2329.60;;;;;;5052082;28;20483;-74
2023/10/12 06:03:15;;;;;;;21.60;4.93;;;384.50;2329.60;;;;;;5092140;28;20466;-74
2023/10/12 06:05:44;;;;;;;22.63;5.10;;;384.60;2329.60;;;;;;5055458;28;20101;-75
2023/10/12 06:08:12;;;;;;;15.85;5.35;;;384.70;2329.60;;;;;;5042608;28;20532;-75
2023/10/12 06:10:43;;;;;;;17.23;5.70;;;384.70;2329.60;;;;;;5058896;28;20029;-75
2023/10/12 06:13:09;;;;;;;11.05;4.47;;;384.90;2329.60;;;;;;5058949;28;20028;-75
2023/10/12 06:15:42;;;;;;;15.75;5.80;;;409.70;2355.20;;;;;;5050303;28;20585;-75
2023/10/12 06:18:15;;;;;;;11.52;4.90;;;410.00;2355.20;;;;;;5059589;28;20033;-75
2023/10/12 06:20:42;;;;;;;10.88;4.88;;;410.20;2355.20;;;;;;5043883;28;20026;-75
2023/10/12 06:23:28;;;;;;;7.97;4.30;;;410.30;2355.20;;;;;;5039124;28;20033;-78
2023/10/12 06:25:55;;;;;;;;;;;410.40;2355.20;;;;;;5058758;28;20024;-75
2023/10/12 06:28:21;;;;;;;12.02;4.65;;;410.50;2355.20;;;;;;5052370;28;19908;-77
2023/10/12 06:30:47;;;;;;;10.45;4.10;;;435.30;2355.20;;;;;;5080023;28;20044;-76
2023/10/12 06:33:17;;;;;;;9.00;3.72;;;435.30;2355.20;;;;;;5079898;28;20358;-77
2023/10/12 06:36:00;;;;;;;8.65;4.57;;;435.50;2355.20;;;;;;5051119;28;20040;-78
2023/10/12 06:38:39;;;;;;;16.10;3.70;;;435.60;2355.20;;;;;;5044242;28;20025;-74
2023/10/12 06:44:12;;;;;;;6.55;3.22;;;436.00;2355.20;;;;;;5056894;28;20525;-74
2023/10/12 06:46:46;;;;;;;5.85;3.17;;;436.10;2355.20;;;;;;5053383;28;20021;-73
2023/10/12 06:49:21;;;;;;;9.05;4.07;;;460.90;2380.80;;;;;;5058018;28;20032;-74
2023/10/12 06:51:53;;;;;;;9.25;3.33;;;461.10;2380.80;;;;;;5044349;28;20518;-74
2023/10/12 06:54:31;;;;;;;4.53;2.88;;;461.30;2380.80;;;;;;5052407;28;20402;-73
2023/10/12 06:57:31;;;;;;;11.57;3.53;;;461.30;2380.80;;;;;;5060236;28;20020;-74
2023/10/12 07:00:17;;;;;;;7.32;3.40;;;461.50;2380.80;;;;;;5058353;28;20029;-75
2023/10/12 07:02:45;;;;;;;15.20;3.35;;;461.60;2380.80;;;;;;5048903;28;20041;-72
2023/10/12 07:05:11;;;;;;;11.93;3.63;;;461.60;2380.80;;;;;;5097978;28;20124;-73
2023/10/12 07:07:39;;;;;;;9.90;4.25;;;461.70;2380.80;;;;;;5042754;28;20113;-74
2023/10/12 07:12:45;;;;;;;9.20;3.97;;;486.50;2355.20;;;;;;5052412;28;20032;-76
2023/10/12 07:15:19;;;;;;;11.38;3.42;;;486.60;2329.60;;;;;;5055239;28;20054;-75
2023/10/12 07:17:51;;;;;;;11.40;3.63;;;486.70;2304.00;;;;;;5049578;28;20505;-75
2023/10/12 07:20:27;;;;;;;8.45;3.10;;;486.90;2278.40;;;;;;5050932;28;20072;-76
2023/10/12 07:22:57;;;;;;;6.75;3.55;;;486.90;2278.40;;;;;;5049553;28;20074;-75
2023/10/12 07:25:27;;;;;;;10.75;3.20;;;486.90;2252.80;;;;;;5040556;28;20037;-75
2023/10/12 07:27:59;;;;;;;11.38;3.45;;;487.10;2252.80;;;;;;5046161;28;20331;-75
2023/10/12 07:30:36;;;;;;;14.73;3.50;;;487.30;2227.20;;;;;;5048144;28;20131;-78
2023/10/12 07:33:05;;;;;;;13.20;3.92;;;512.10;2227.20;;;;;;5052621;28;20029;-77
2023/10/12 07:35:34;;;;;;;10.52;3.42;;;512.50;2201.60;;;;;;5054425;28;20533;-76
2023/10/12 07:38:06;;;;;;;9.48;4.25;;;512.70;2201.60;;;;;;5045382;28;20029;-76
2023/10/12 07:40:37;;;;;;;6.40;3.47;;;512.80;2150.40;;;;;;5051869;28;20040;-75
2023/10/12 07:43:10;;;;;;;16.00;4.28;;;512.60;2150.40;;;;;;5056014;28;20033;-75
2023/10/12 07:45:38;;;;;;;9.35;3.97;;;512.50;2150.40;;;;;;5048436;28;20063;-74
2023/10/12 07:48:09;;;;;;;15.65;3.97;;;512.60;2150.40;;;;;;5049574;28;20111;-75
2023/10/12 07:50:47;;;;;;;8.57;3.22;;;512.80;2124.80;;;;;;5053763;28;20020;-75
2023/10/12 07:53:23;;;;;;;10.07;3.67;;;512.80;2124.80;;;;;;5049118;28;20017;-74
2023/10/12 07:55:53;;;;;;;6.80;4.00;;;512.90;2124.80;;;;;;5055733;28;20029;-75
2023/10/12 07:58:21;;;;;;;15.35;4.25;;;512.90;2099.20;;;;;;5049784;28;20040;-75
2023/10/12 08:01:19;;;;;;;10.68;3.92;;;512.90;2124.80;;;;;;5042818;28;20490;-75
2023/10/12 08:03:41;;;;;;;9.35;3.85;;;512.90;2099.20;;;;;;5046470;28;20100;-72
2023/10/12 08:06:07;;;;;;;9.13;3.42;;;512.90;2124.80;;;;;;5051114;28;20025;-74
2023/10/12 08:08:33;;;;;;;16.58;4.65;;;537.60;2124.80;;;;;;5056503;28;20386;-75
2023/10/12 08:11:08;;;;;;;12.90;4.63;;;537.80;2099.20;;;;;;5041498;28;20024;-76
2023/10/12 08:13:39;;;;;;;8.88;4.82;;;538.00;2048.00;;;;;;5049741;28;20418;-77
2023/10/12 08:16:12;;;;;;;9.55;4.70;;;538.00;2099.20;;;;;;5056257;28;20028;-75
2023/10/12 08:21:38;;;;;;;11.00;5.30;;;;;;;;;;5050741;28;20430;-76
2023/10/12 08:39:39;;;;;;;12.38;4.63;;;563.60;1996.80;;;;;;5052848;28;20036;-76
2023/10/12 08:44:47;;;;;;;10.02;3.90;;;563.80;2022.40;;;;;;5046640;28;20157;-74
2023/10/12 08:47:25;;;;;;;13.05;3.72;;;563.70;1971.20;;;;;;5078676;28;20051;-74
2023/10/12 08:50:01;;;;;;;19.80;5.13;;;564.00;1945.60;;;;;;5039917;28;20028;-75
2023/10/12 08:52:31;;;;;;;16.58;4.70;;;564.10;1971.20;;;;;;5048553;28;20037;-76
2023/10/12 08:55:07;;;;;;;12.48;4.18;;;564.00;1971.20;;;;;;5054510;28;20462;-75
2023/10/12 08:57:42;;;;;;;;;;;564.10;1945.60;;;;;;5046126;28;20103;-79
2023/10/12 09:00:38;;;;;;;13.60;3.45;;;564.10;1920.00;;;;;;5079229;28;20269;-77
2023/10/12 09:05:41;;;;;;;11.35;4.38;;;589.00;1945.60;;;;;;5058219;28;20091;-77
2023/10/12 09:10:55;;;;;;;9.05;4.65;;;589.30;1894.40;;;;;;5041300;28;20048;-76
2023/10/12 09:13:24;;;;;;;14.07;4.57;;;589.60;1868.80;;;;;;5050668;28;20021;-75
2023/10/12 09:15:59;;;;;;;13.13;4.90;;;614.50;1817.60;;;;;;5044159;28;20133;-76
2023/10/12 09:18:47;;;;;;;13.68;4.78;;;614.80;1817.60;;;;;;5042274;28;20021;-76
2023/10/12 09:26:34;;;;;;;12.07;4.57;;;615.30;1740.80;;;;;;5049452;28;20048;-75
2023/10/12 09:36:43;;;;;;;9.15;4.70;;;;;;;;;;5052539;28;20032;-75
2023/10/12 09:39:12;;;;;;;21.30;4.60;;;640.80;1689.60;;;;;;5056492;28;20493;-75
2023/10/12 09:41:40;;;;;;;10.82;4.45;;;665.60;1664.00;;;;;;5050778;28;20026;-75
2023/10/12 09:44:12;;;;;;;10.73;4.47;;;665.60;1689.60;;;;;;5054530;28;20152;-75
2023/10/12 09:46:48;;;;;;;11.70;4.45;;;665.70;1612.80;;;;;;5056625;28;20032;-75
2023/10/12 09:49:22;;;;;;;22.33;5.88;;;666.00;1638.40;;;;;;5056205;28;20138;-73
2023/10/12 09:51:59;;;;;;;11.10;5.65;;;666.20;1664.00;;;;;;5044714;28;20026;-74
2023/10/12 09:54:49;;;;;;;10.20;4.65;;;666.30;1638.40;;;;;;5054208;28;20029;-74
2023/10/12 09:57:27;;;;;;;10.45;4.40;;;691.20;1612.80;;;;;;5050244;28;21819;-74
2023/10/12 09:59:59;;;;;;;15.75;5.30;;;691.50;1587.20;;;;;;5044866;28;20071;-74
2023/10/12 10:02:29;;;;;;;24.73;5.78;;;691.70;1536.00;;;;;;5054203;28;20170;-74
2023/10/12 10:07:55;;;;;;;13.55;6.50;;;691.50;1561.60;;;;;;5062276;28;20032;-74
2023/10/12 10:10:33;;;;;;;32.42;6.20;;;691.80;1536.00;;;;;;5052945;28;20021;-73
2023/10/12 10:13:20;;;;;;;18.17;8.63;;;691.60;1536.00;;;;;;5059992;28;20475;-74
2023/10/12 10:15:59;;;;;;;17.38;7.40;;;691.80;1561.60;;;;;;5060668;28;20132;-75
2023/10/12 10:18:28;;;;;;;18.52;7.53;;;691.80;1536.00;;;;;;5052048;28;20420;-74
2023/10/12 10:21:01;;;;;;;15.02;6.50;;;691.90;1510.40;;;;;;5048052;28;20053;-74
2023/10/12 10:23:35;;;;;;;19.10;7.40;;;;;;;;;;5060578;28;20025;-75
2023/10/12 10:26:19;;;;;;;20.67;6.63;;;717.20;1459.20;;;;;;5051116;28;20035;-74
2023/10/12 10:28:55;;;;;;;14.85;7.32;;;717.10;1484.80;;;;;;5056103;28;20133;-75
2023/10/12 10:31:36;;;;;;;;;;;717.10;1484.80;;;;;;5058664;28;20104;-74
2023/10/12 10:34:07;;;;;;;14.65;7.35;;;716.90;1484.80;;;;;;5062913;28;19924;-75
2023/10/12 10:36:34;;;;;;;12.82;6.78;;;717.20;1459.20;;;;;;5066874;28;20021;-75
2023/10/12 10:39:28;;;;;;;17.17;7.10;;;717.40;1459.20;;;;;;5045346;28;20041;-75
2023/10/12 10:41:56;;;;;;;21.25;7.18;;;717.60;1433.60;;;;;;5059331;28;20482;-74
2023/10/12 10:44:26;;;;;;;18.02;6.57;;;717.40;1459.20;;;;;;5065061;28;20053;-75
2023/10/12 10:47:00;;;;;;;16.50;6.82;;;;;;;;;;5052269;28;20032;-75
2023/10/12 10:49:33;;;;;;;14.25;6.65;;;717.70;1408.00;;;;;;5040082;28;20181;-75
2023/10/12 10:54:37;;;;;;;19.95;7.90;;;742.40;1433.60;;;;;;5053879;28;20123;-76
2023/10/12 10:57:17;;;;;;;21.85;9.18;;;742.70;1433.60;;;;;;5039931;28;20021;-76
2023/10/12 10:59:44;;;;;;;22.20;8.98;;;742.80;1459.20;;;;;;5047121;28;20028;-76
2023/10/12 11:02:14;;;;;;;15.90;6.25;;;742.90;1433.60;;;;;;5048658;28;20025;-77
2023/10/12 11:07:11;;;;;;;18.30;7.03;;;742.80;1408.00;;;;;;5044666;28;20104;-74
2023/10/12 11:12:25;;;;;;;12.55;6.03;;;743.00;1408.00;;;;;;5047946;28;20032;-75
2023/10/12 11:18:00;;;;;;;18.88;6.72;;;742.80;1382.40;;;;;;5018037;28;20037;-75
2023/10/12 11:20:34;;;;;;;21.15;6.15;;;742.80;1408.00;;;;;;5013027;28;20045;-75
2023/10/12 11:23:03;;;;;;;24.92;5.85;;;743.30;1382.40;;;;;;5011132;28;20031;-75
2023/10/12 11:25:29;;;;;;;16.27;6.40;;;768.10;1356.80;;;;;;5018109;28;20048;-74
2023/10/12 11:27:54;;;;;;;14.80;6.82;;;768.00;1382.40;;;;;;5027190;28;20109;-74
2023/10/12 11:30:30;;;;;;;7.75;4.65;;;768.20;1331.20;;;;;;5008565;28;20058;-74
2023/10/12 11:32:59;;;;;;;14.70;4.90;;;768.10;1331.20;;;;;;4997749;28;20037;-74
2023/10/12 11:35:43;;;;;;;14.55;5.45;;;768.40;1305.60;;;;;;5020252;28;20040;-76
2023/10/12 11:38:20;;;;;;;12.13;4.78;;;768.70;1305.60;;;;;;5011660;28;20077;-75
2023/10/12 11:40:53;;;;;;;11.68;5.07;;;768.80;1280.00;;;;;;5009596;28;20135;-74
2023/10/12 11:43:29;;;;;;;12.30;5.50;;;768.90;1305.60;;;;;;5025248;28;20100;-75
2023/10/12 11:46:07;;;;;;;;;;;793.60;1331.20;;;;;;5011431;28;20057;-75
2023/10/12 11:48:33;;;;;;;11.32;5.00;;;793.60;1305.60;;;;;;5005847;28;20379;-75
2023/10/12 11:51:00;;;;;;;16.10;5.10;;;793.70;1305.60;;;;;;5015400;28;20036;-74
2023/10/12 11:53:28;;;;;;;10.57;4.75;;;793.60;1331.20;;;;;;5027703;28;20051;-75
2023/10/12 11:56:07;;;;;;;16.05;5.70;;;768.80;1280.00;;;;;;5053360;28;20036;-76
2023/10/12 11:58:33;;;;;;;10.75;5.72;;;768.70;1280.00;;;;;;5053170;28;20103;-76
2023/10/12 12:01:02;;;;;;;10.35;5.13;;;768.80;1280.00;;;;;;5058548;28;20123;-75
2023/10/12 12:03:27;;;;;;;12.77;5.63;;;793.60;1305.60;;;;;;5044199;28;20423;-75
2023/10/12 12:05:53;;;;;;;13.07;5.82;;;793.70;1305.60;;;;;;5074149;28;20034;-74
2023/10/12 12:08:19;;;;;;;8.55;5.55;;;793.80;1280.00;;;;;;5046805;28;20056;-75
2023/10/12 12:10:53;;;;;;;11.20;5.05;;;793.70;1305.60;;;;;;5053605;28;20387;-75
2023/10/12 12:13:20;;;;;;;8.70;5.18;;;793.60;1331.20;;;;;;5053722;28;20017;-74
2023/10/12 12:15:47;;;;;;;12.10;5.28;;;793.60;1305.60;;;;;;5074943;28;20048;-74
2023/10/12 12:18:21;;;;;;;9.50;4.78;;;793.70;1305.60;;;;;;5051088;28;20446;-75
2023/10/12 12:20:58;;;;;;;10.85;4.65;;;793.60;1280.00;;;;;;5041832;28;20022;-74
2023/10/12 12:23:27;;;;;;;14.55;4.65;;;793.70;1280.00;;;;;;5057605;28;20470;-75
2023/10/12 12:26:00;;;;;;;12.25;4.65;;;793.70;1280.00;;;;;;5054530;28;20036;-75
2023/10/12 12:28:31;;;;;;;14.80;5.60;;;793.70;1280.00;;;;;;5058652;28;20021;-75
2023/10/12 12:31:00;;;;;;;19.50;5.65;;;768.90;1305.60;;;;;;5052678;28;20025;-75
2023/10/12 12:33:29;;;;;;;11.27;5.95;;;768.90;1280.00;;;;;;5057494;28;20024;-75
2023/10/12 12:35:59;;;;;;;12.07;5.63;;;768.90;1254.40;;;;;;5061327;28;20028;-75
2023/10/12 12:40:56;;;;;;;13.90;5.18;;;768.50;1280.00;;;;;;5050860;28;20498;-74
2023/10/12 12:43:21;;;;;;;9.60;4.95;;;768.60;1305.60;;;;;;5047590;28;20072;-75
2023/10/12 12:45:47;;;;;;;19.25;6.20;;;768.50;1305.60;;;;;;5051785;28;20059;-75
2023/10/12 12:48:14;;;;;;;14.20;5.00;;;768.50;1331.20;;;;;;5053875;28;20025;-75
2023/10/12 12:50:43;;;;;;;16.95;6.13;;;768.30;1305.60;;;;;;5055027;28;20052;-74
2023/10/12 12:53:11;;;;;;;15.23;7.03;;;768.10;1356.80;;;;;;5045647;28;20475;-75
2023/10/12 12:55:38;;;;;;;11.70;6.22;;;768.10;1356.80;;;;;;5052406;28;20406;-75
2023/10/12 12:58:09;;;;;;;15.88;7.05;;;768.00;1331.20;;;;;;5051501;28;20060;-74
2023/10/12 13:00:35;;;;;;;13.45;6.32;;;768.10;1331.20;;;;;;5040301;28;20014;-75
2023/10/12 13:03:01;;;;;;;11.23;4.70;;;743.30;1331.20;;;;;;5048296;28;20159;-79
2023/10/12 13:05:30;;;;;;;10.85;5.53;;;743.00;1356.80;;;;;;5055650;28;20048;-74
2023/10/12 13:07:56;;;;;;;13.15;5.95;;;743.10;1331.20;;;;;;5054212;28;20025;-75
2023/10/12 13:10:25;;;;;;;12.10;5.90;;;743.30;1331.20;;;;;;5058639;28;20455;-75
2023/10/12 13:12:51;;;;;;;17.35;6.40;;;743.30;1331.20;;;;;;5055096;28;20517;-74
2023/10/12 13:15:17;;;;;;;18.63;5.70;;;743.20;1356.80;;;;;;5060488;28;20049;-75
2023/10/12 13:17:43;;;;;;;10.05;5.90;;;743.00;1382.40;;;;;;5060084;28;20018;-75
2023/10/12 13:20:18;;;;;;;11.02;5.82;;;743.00;1382.40;;;;;;5047919;28;20393;-74
2023/10/12 13:22:44;;;;;;;13.32;6.40;;;742.80;1408.00;;;;;;5055940;28;20025;-75
2023/10/12 13:25:11;;;;;;;12.00;7.07;;;742.90;1382.40;;;;;;5054172;28;20123;-75
2023/10/12 13:27:37;;;;;;;13.35;6.75;;;742.90;1382.40;;;;;;5042542;28;20060;-75
2023/10/12 13:30:11;;;;;;;13.07;7.63;;;742.80;1408.00;;;;;;5054375;28;20474;-74
2023/10/12 13:32:37;;;;;;;15.52;8.45;;;742.90;1382.40;;;;;;5062292;28;20025;-74
2023/10/12 13:35:18;;;;;;;13.63;7.25;;;742.90;1356.80;;;;;;5058716;28;20164;-74
2023/10/12 13:37:52;;;;;;;18.92;8.05;;;742.80;1356.80;;;;;;5052935;28;20027;-74
2023/10/12 13:40:18;;;;;;;12.50;6.75;;;742.80;1356.80;;;;;;5057971;28;20044;-74
2023/10/12 13:42:44;;;;;;;17.27;7.65;;;742.60;1356.80;;;;;;5064215;28;20064;-74
2023/10/12 13:45:12;;;;;;;13.45;7.75;;;742.80;1382.40;;;;;;5056827;28;20032;-74
2023/10/12 13:47:42;;;;;;;16.17;8.07;;;742.50;1356.80;;;;;;5060886;28;20108;-74
2023/10/12 13:50:10;;;;;;;20.25;8.40;;;742.50;1356.80;;;;;;5057988;28;20056;-74
2023/10/12 13:52:39;;;;;;;19.08;8.20;;;742.40;1382.40;;;;;;5060805;28;20028;-74
2023/10/12 13:55:15;;;;;;;18.55;7.72;;;742.40;1356.80;;;;;;5049538;28;20045;-73
2023/10/12 13:57:57;;;;;;;18.25;8.40;;;717.60;1356.80;;;;;;5053127;28;20033;-74
2023/10/12 14:00:27;;;;;;;21.42;6.70;;;717.50;1356.80;;;;;;5052294;28;20033;-73
2023/10/12 14:02:56;;;;;;;14.13;7.25;;;717.50;1382.40;;;;;;5050586;28;20088;-74
2023/10/12 14:05:28;;;;;;;12.00;8.02;;;717.40;1408.00;;;;;;5060246;28;20058;-75
2023/10/12 14:08:01;;;;;;;13.38;8.32;;;717.40;1382.40;;;;;;5060271;28;20045;-74
2023/10/12 14:10:27;;;;;;;16.25;8.23;;;717.40;1382.40;;;;;;5047866;28;20021;-75
2023/10/12 14:12:54;;;;;;;17.42;8.52;;;717.30;1356.80;;;;;;5046546;28;20033;-74
2023/10/12 14:15:21;;;;;;;23.92;7.90;;;717.30;1356.80;;;;;;5046883;28;20044;-74
2023/10/12 14:17:47;;;;;;;17.13;8.48;;;717.20;1382.40;;;;;;5056264;28;20022;-73
2023/10/12 14:20:13;;;;;;;18.13;8.68;;;717.10;1382.40;;;;;;5048248;28;20029;-74
2023/10/12 14:22:44;;;;;;;15.40;8.00;;;717.10;1382.40;;;;;;5050160;28;20111;-74
2023/10/12 14:25:17;;;;;;;14.55;7.75;;;716.80;1356.80;;;;;;5042500;28;20036;-73
2023/10/12 14:27:42;;;;;;;20.85;8.60;;;716.90;1382.40;;;;;;5050122;28;20048;-74
2023/10/12 14:30:25;;;;;;;15.25;7.93;;;716.80;1459.20;;;;;;5052834;28;20028;-76
2023/10/12 14:32:51;;;;;;;20.98;9.73;;;692.10;1459.20;;;;;;5061100;28;20071;-74
2023/10/12 14:35:18;;;;;;;17.92;9.77;;;692.00;1484.80;;;;;;5055839;28;20037;-74
2023/10/12 14:37:44;;;;;;;19.77;9.90;;;691.90;1484.80;;;;;;5056240;28;20021;-74
2023/10/12 14:40:18;;;;;;;19.17;8.50;;;691.80;1459.20;;;;;;5047350;28;20029;-74
2023/10/12 14:42:44;;;;;;;17.90;9.95;;;691.80;1459.20;;;;;;5057323;28;20021;-74